sensor_id;sensor_type;location;lat;lon;timestamp;temperature;humidity
15930;DHT22;8064;51.142;4.780;2022-09-12T00:00:29;15.50;99.90
15930;DHT22;8064;51.142;4.780;2022-09-12T00:02:57;15.50;99.90
15930;DHT22;8064;51.142;4.780;2022-09-12T00:05:23;15.50;99.90
15930;DHT22;8064;51.142;4.780;2022-09-12T00:07:50;15.50;99.90
15930;DHT22;8064;51.142;4.780;2022-09-12T00:10:16;15.50;99.90
15930;DHT22;8064;51.142;4.780;2022-09-12T00:12:41;15.50;99.90
15930;DHT22;8064;51.142;4.780;2022-09-12T00:15:09;15.50;99.90
15930;DHT22;8064;51.142;4.780;2022-09-12T00:17:36;15.50;99.90
15930;DHT22;8064;51.142;4.780;2022-09-12T00:20:03;15.50;99.90
15930;DHT22;8064;51.142;4.780;2022-09-12T00:22:30;15.50;99.90
15930;DHT22;8064;51.142;4.780;2022-09-12T00:24:55;15.40;99.90
15930;DHT22;8064;51.142;4.780;2022-09-12T00:27:21;15.40;99.90
15930;DHT22;8064;51.142;4.780;2022-09-12T00:29:47;15.30;99.90
15930;DHT22;8064;51.142;4.780;2022-09-12T00:32:12;15.20;99.90
15930;DHT22;8064;51.142;4.780;2022-09-12T00:34:38;15.20;99.90
15930;DHT22;8064;51.142;4.780;2022-09-12T00:37:04;15.10;99.90
15930;DHT22;8064;51.142;4.780;2022-09-12T00:39:30;15.10;99.90
15930;DHT22;8064;51.142;4.780;2022-09-12T00:41:55;15.10;99.90
15930;DHT22;8064;51.142;4.780;2022-09-12T00:49:23;15.00;99.90
15930;DHT22;8064;51.142;4.780;2022-09-12T00:51:55;15.00;99.90
15930;DHT22;8064;51.142;4.780;2022-09-12T00:54:27;15.00;99.90
15930;DHT22;8064;51.142;4.780;2022-09-12T00:56:58;15.00;99.90
15930;DHT22;8064;51.142;4.780;2022-09-12T01:02:11;15.00;99.90
15930;DHT22;8064;51.142;4.780;2022-09-12T01:04:38;15.00;99.90
15930;DHT22;8064;51.142;4.780;2022-09-12T01:07:06;15.00;99.90
15930;DHT22;8064;51.142;4.780;2022-09-12T01:09:33;15.00;99.90
15930;DHT22;8064;51.142;4.780;2022-09-12T01:12:01;15.00;99.90
15930;DHT22;8064;51.142;4.780;2022-09-12T01:14:27;15.00;99.90
15930;DHT22;8064;51.142;4.780;2022-09-12T01:16:54;15.00;99.90
15930;DHT22;8064;51.142;4.780;2022-09-12T01:25:26;14.80;99.90
15930;DHT22;8064;51.142;4.780;2022-09-12T01:28:23;14.90;99.90
15930;DHT22;8064;51.142;4.780;2022-09-12T01:31:15;14.80;99.90
15930;DHT22;8064;51.142;4.780;2022-09-12T01:39:45;14.80;99.90
15930;DHT22;8064;51.142;4.780;2022-09-12T01:42:38;14.80;99.90
15930;DHT22;8064;51.142;4.780;2022-09-12T01:45:17;14.80;99.90
15930;DHT22;8064;51.142;4.780;2022-09-12T01:47:50;14.80;99.90
15930;DHT22;8064;51.142;4.780;2022-09-12T01:50:24;14.70;99.90
15930;DHT22;8064;51.142;4.780;2022-09-12T01:53:08;14.70;99.90
15930;DHT22;8064;51.142;4.780;2022-09-12T01:55:41;14.70;99.90
15930;DHT22;8064;51.142;4.780;2022-09-12T01:58:10;14.70;99.90
15930;DHT22;8064;51.142;4.780;2022-09-12T02:00:45;14.70;99.90
15930;DHT22;8064;51.142;4.780;2022-09-12T02:03:17;14.70;99.90
15930;DHT22;8064;51.142;4.780;2022-09-12T02:05:51;14.70;99.90
15930;DHT22;8064;51.142;4.780;2022-09-12T02:08:38;14.70;99.90
15930;DHT22;8064;51.142;4.780;2022-09-12T02:11:07;14.70;99.90
15930;DHT22;8064;51.142;4.780;2022-09-12T02:13:35;14.70;99.90
15930;DHT22;8064;51.142;4.780;2022-09-12T02:16:08;14.70;99.90
15930;DHT22;8064;51.142;4.780;2022-09-12T02:18:38;14.70;99.90
15930;DHT22;8064;51.142;4.780;2022-09-12T02:21:05;14.60;99.90
15930;DHT22;8064;51.142;4.780;2022-09-12T02:23:31;14.60;99.90
15930;DHT22;8064;51.142;4.780;2022-09-12T02:26:05;14.60;99.90
15930;DHT22;8064;51.142;4.780;2022-09-12T02:28:36;14.50;99.90
15930;DHT22;8064;51.142;4.780;2022-09-12T02:34:08;14.50;99.90
15930;DHT22;8064;51.142;4.780;2022-09-12T02:36:50;14.50;99.90
15930;DHT22;8064;51.142;4.780;2022-09-12T02:39:17;14.50;99.90
15930;DHT22;8064;51.142;4.780;2022-09-12T02:41:46;14.50;99.90
15930;DHT22;8064;51.142;4.780;2022-09-12T02:44:12;14.60;99.90
15930;DHT22;8064;51.142;4.780;2022-09-12T02:46:42;14.50;99.90
15930;DHT22;8064;51.142;4.780;2022-09-12T02:49:08;14.60;99.90
15930;DHT22;8064;51.142;4.780;2022-09-12T02:51:34;14.60;99.90
15930;DHT22;8064;51.142;4.780;2022-09-12T02:54:00;14.60;99.90
15930;DHT22;8064;51.142;4.780;2022-09-12T02:56:29;14.60;99.90
15930;DHT22;8064;51.142;4.780;2022-09-12T03:12:46;14.70;99.90
15930;DHT22;8064;51.142;4.780;2022-09-12T03:21:27;14.70;99.90
15930;DHT22;8064;51.142;4.780;2022-09-12T03:26:34;14.70;99.90
15930;DHT22;8064;51.142;4.780;2022-09-12T03:29:02;14.70;99.90
15930;DHT22;8064;51.142;4.780;2022-09-12T03:31:28;14.70;99.90
15930;DHT22;8064;51.142;4.780;2022-09-12T03:33:54;14.70;99.90
15930;DHT22;8064;51.142;4.780;2022-09-12T03:36:33;14.60;99.90
15930;DHT22;8064;51.142;4.780;2022-09-12T03:38:59;14.60;99.90
15930;DHT22;8064;51.142;4.780;2022-09-12T03:41:24;14.60;99.90
15930;DHT22;8064;51.142;4.780;2022-09-12T03:43:50;14.60;99.90
15930;DHT22;8064;51.142;4.780;2022-09-12T03:46:16;14.60;99.90
15930;DHT22;8064;51.142;4.780;2022-09-12T03:48:41;14.60;99.90
15930;DHT22;8064;51.142;4.780;2022-09-12T03:51:08;14.60;99.90
15930;DHT22;8064;51.142;4.780;2022-09-12T03:53:34;14.60;99.90
15930;DHT22;8064;51.142;4.780;2022-09-12T03:56:14;14.60;99.90
15930;DHT22;8064;51.142;4.780;2022-09-12T03:58:43;14.60;99.90
15930;DHT22;8064;51.142;4.780;2022-09-12T04:01:11;14.50;99.90
15930;DHT22;8064;51.142;4.780;2022-09-12T04:03:39;14.50;99.90
15930;DHT22;8064;51.142;4.780;2022-09-12T04:06:05;14.50;99.90
15930;DHT22;8064;51.142;4.780;2022-09-12T04:08:31;14.50;99.90
15930;DHT22;8064;51.142;4.780;2022-09-12T04:11:15;14.50;99.90
15930;DHT22;8064;51.142;4.780;2022-09-12T04:13:43;14.50;99.90
15930;DHT22;8064;51.142;4.780;2022-09-12T04:16:10;14.50;99.90
15930;DHT22;8064;51.142;4.780;2022-09-12T04:18:36;14.50;99.90
15930;DHT22;8064;51.142;4.780;2022-09-12T04:21:05;14.40;99.90
15930;DHT22;8064;51.142;4.780;2022-09-12T04:23:31;14.40;99.90
15930;DHT22;8064;51.142;4.780;2022-09-12T04:26:00;14.40;99.90
15930;DHT22;8064;51.142;4.780;2022-09-12T04:28:27;14.40;99.90
15930;DHT22;8064;51.142;4.780;2022-09-12T04:30:54;14.40;99.90
15930;DHT22;8064;51.142;4.780;2022-09-12T04:33:21;14.40;99.90
15930;DHT22;8064;51.142;4.780;2022-09-12T04:35:47;14.40;99.90
15930;DHT22;8064;51.142;4.780;2022-09-12T04:38:13;14.40;99.90
15930;DHT22;8064;51.142;4.780;2022-09-12T04:40:39;14.40;99.90
15930;DHT22;8064;51.142;4.780;2022-09-12T04:43:05;14.40;99.90
15930;DHT22;8064;51.142;4.780;2022-09-12T04:45:32;14.40;99.90
15930;DHT22;8064;51.142;4.780;2022-09-12T04:47:58;14.30;99.90
15930;DHT22;8064;51.142;4.780;2022-09-12T04:50:24;14.40;99.90
15930;DHT22;8064;51.142;4.780;2022-09-12T04:52:51;14.30;99.90
15930;DHT22;8064;51.142;4.780;2022-09-12T04:55:19;14.30;99.90
15930;DHT22;8064;51.142;4.780;2022-09-12T04:57:45;14.40;99.90
15930;DHT22;8064;51.142;4.780;2022-09-12T05:00:11;14.40;99.90
15930;DHT22;8064;51.142;4.780;2022-09-12T05:02:38;14.40;99.90
15930;DHT22;8064;51.142;4.780;2022-09-12T05:05:04;14.40;99.90
15930;DHT22;8064;51.142;4.780;2022-09-12T05:07:30;14.40;99.90
15930;DHT22;8064;51.142;4.780;2022-09-12T05:09:56;14.40;99.90
15930;DHT22;8064;51.142;4.780;2022-09-12T05:12:23;14.40;99.90
15930;DHT22;8064;51.142;4.780;2022-09-12T05:14:48;14.40;99.90
15930;DHT22;8064;51.142;4.780;2022-09-12T05:17:14;14.40;99.90
15930;DHT22;8064;51.142;4.780;2022-09-12T05:19:40;14.40;99.90
15930;DHT22;8064;51.142;4.780;2022-09-12T05:22:05;14.40;99.90
15930;DHT22;8064;51.142;4.780;2022-09-12T05:24:31;14.40;99.90
15930;DHT22;8064;51.142;4.780;2022-09-12T05:26:57;14.40;99.90
15930;DHT22;8064;51.142;4.780;2022-09-12T05:29:23;14.30;99.90
15930;DHT22;8064;51.142;4.780;2022-09-12T05:31:50;14.30;99.90
15930;DHT22;8064;51.142;4.780;2022-09-12T05:34:18;14.30;99.90
15930;DHT22;8064;51.142;4.780;2022-09-12T05:36:44;14.30;99.90
15930;DHT22;8064;51.142;4.780;2022-09-12T05:39:10;14.30;99.90
15930;DHT22;8064;51.142;4.780;2022-09-12T05:41:35;14.30;99.90
15930;DHT22;8064;51.142;4.780;2022-09-12T05:44:03;14.30;99.90
15930;DHT22;8064;51.142;4.780;2022-09-12T05:46:35;14.30;99.90
15930;DHT22;8064;51.142;4.780;2022-09-12T05:49:03;14.30;99.90
15930;DHT22;8064;51.142;4.780;2022-09-12T05:51:33;14.30;99.90
15930;DHT22;8064;51.142;4.780;2022-09-12T05:54:01;14.30;99.90
15930;DHT22;8064;51.142;4.780;2022-09-12T05:56:29;14.30;99.90
15930;DHT22;8064;51.142;4.780;2022-09-12T05:58:58;14.30;99.90
15930;DHT22;8064;51.142;4.780;2022-09-12T06:01:25;14.40;99.90
15930;DHT22;8064;51.142;4.780;2022-09-12T06:03:53;14.40;99.90
15930;DHT22;8064;51.142;4.780;2022-09-12T06:06:21;14.40;99.90
15930;DHT22;8064;51.142;4.780;2022-09-12T06:08:49;14.40;99.90
15930;DHT22;8064;51.142;4.780;2022-09-12T06:11:19;14.40;99.90
15930;DHT22;8064;51.142;4.780;2022-09-12T06:13:45;14.40;99.90
15930;DHT22;8064;51.142;4.780;2022-09-12T06:16:13;14.40;99.90
15930;DHT22;8064;51.142;4.780;2022-09-12T06:18:39;14.40;99.90
15930;DHT22;8064;51.142;4.780;2022-09-12T06:21:07;14.40;99.90
15930;DHT22;8064;51.142;4.780;2022-09-12T06:23:33;14.50;99.90
15930;DHT22;8064;51.142;4.780;2022-09-12T06:26:00;14.50;99.90
15930;DHT22;8064;51.142;4.780;2022-09-12T06:28:26;14.50;99.90
15930;DHT22;8064;51.142;4.780;2022-09-12T06:30:52;14.50;99.90
15930;DHT22;8064;51.142;4.780;2022-09-12T06:33:18;14.60;99.90
15930;DHT22;8064;51.142;4.780;2022-09-12T06:35:44;14.60;99.90
15930;DHT22;8064;51.142;4.780;2022-09-12T06:38:09;14.70;99.90
15930;DHT22;8064;51.142;4.780;2022-09-12T06:40:41;14.70;99.90
15930;DHT22;8064;51.142;4.780;2022-09-12T06:43:10;14.80;99.90
15930;DHT22;8064;51.142;4.780;2022-09-12T06:45:35;15.00;99.90
15930;DHT22;8064;51.142;4.780;2022-09-12T06:48:01;15.10;99.90
15930;DHT22;8064;51.142;4.780;2022-09-12T06:50:27;15.20;99.90
15930;DHT22;8064;51.142;4.780;2022-09-12T06:52:52;15.40;99.90
15930;DHT22;8064;51.142;4.780;2022-09-12T06:55:18;15.50;99.90
15930;DHT22;8064;51.142;4.780;2022-09-12T06:57:44;15.60;99.90
15930;DHT22;8064;51.142;4.780;2022-09-12T07:00:10;15.70;99.90
15930;DHT22;8064;51.142;4.780;2022-09-12T07:02:36;15.90;99.90
15930;DHT22;8064;51.142;4.780;2022-09-12T07:05:02;15.90;99.90
15930;DHT22;8064;51.142;4.780;2022-09-12T07:07:27;16.00;99.90
15930;DHT22;8064;51.142;4.780;2022-09-12T07:09:53;16.20;99.90
15930;DHT22;8064;51.142;4.780;2022-09-12T07:12:22;16.30;99.90
15930;DHT22;8064;51.142;4.780;2022-09-12T07:14:47;16.50;99.90
15930;DHT22;8064;51.142;4.780;2022-09-12T07:17:13;16.70;99.90
15930;DHT22;8064;51.142;4.780;2022-09-12T07:19:39;16.90;99.90
15930;DHT22;8064;51.142;4.780;2022-09-12T07:22:05;17.00;99.90
15930;DHT22;8064;51.142;4.780;2022-09-12T07:24:31;17.20;99.90
15930;DHT22;8064;51.142;4.780;2022-09-12T07:26:57;17.30;99.90
15930;DHT22;8064;51.142;4.780;2022-09-12T07:29:22;17.50;99.90
15930;DHT22;8064;51.142;4.780;2022-09-12T07:31:48;17.70;99.90
15930;DHT22;8064;51.142;4.780;2022-09-12T07:34:14;17.80;99.90
15930;DHT22;8064;51.142;4.780;2022-09-12T07:36:40;17.90;99.90
15930;DHT22;8064;51.142;4.780;2022-09-12T07:39:05;18.00;99.90
15930;DHT22;8064;51.142;4.780;2022-09-12T07:41:32;18.20;99.90
15930;DHT22;8064;51.142;4.780;2022-09-12T07:44:00;18.40;99.90
15930;DHT22;8064;51.142;4.780;2022-09-12T07:46:27;18.60;99.90
15930;DHT22;8064;51.142;4.780;2022-09-12T07:48:55;18.80;99.90
15930;DHT22;8064;51.142;4.780;2022-09-12T07:51:22;18.90;99.90
15930;DHT22;8064;51.142;4.780;2022-09-12T07:53:48;19.10;99.90
15930;DHT22;8064;51.142;4.780;2022-09-12T07:56:15;19.30;99.90
15930;DHT22;8064;51.142;4.780;2022-09-12T07:58:42;19.60;99.90
15930;DHT22;8064;51.142;4.780;2022-09-12T08:01:11;19.70;99.90
15930;DHT22;8064;51.142;4.780;2022-09-12T08:03:39;19.90;99.90
15930;DHT22;8064;51.142;4.780;2022-09-12T08:06:08;20.10;99.90
15930;DHT22;8064;51.142;4.780;2022-09-12T08:08:34;20.30;99.90
15930;DHT22;8064;51.142;4.780;2022-09-12T08:11:02;20.50;99.90
15930;DHT22;8064;51.142;4.780;2022-09-12T08:13:28;20.70;99.90
15930;DHT22;8064;51.142;4.780;2022-09-12T08:16:12;20.90;99.90
15930;DHT22;8064;51.142;4.780;2022-09-12T08:18:38;21.10;99.90
15930;DHT22;8064;51.142;4.780;2022-09-12T08:21:07;21.20;99.90
15930;DHT22;8064;51.142;4.780;2022-09-12T08:23:34;21.40;99.90
15930;DHT22;8064;51.142;4.780;2022-09-12T08:26:02;21.50;99.90
15930;DHT22;8064;51.142;4.780;2022-09-12T08:28:28;21.70;99.90
15930;DHT22;8064;51.142;4.780;2022-09-12T08:31:00;21.90;99.90
15930;DHT22;8064;51.142;4.780;2022-09-12T08:33:26;22.00;99.90
15930;DHT22;8064;51.142;4.780;2022-09-12T08:36:02;22.20;99.90
15930;DHT22;8064;51.142;4.780;2022-09-12T08:38:29;22.30;99.90
15930;DHT22;8064;51.142;4.780;2022-09-12T08:47:03;22.90;99.90
15930;DHT22;8064;51.142;4.780;2022-09-12T08:49:37;23.10;99.80
15930;DHT22;8064;51.142;4.780;2022-09-12T08:54:48;23.30;99.40
15930;DHT22;8064;51.142;4.780;2022-09-12T08:57:15;23.50;98.90
15930;DHT22;8064;51.142;4.780;2022-09-12T08:59:42;23.70;98.50
15930;DHT22;8064;51.142;4.780;2022-09-12T09:02:42;23.80;98.20
15930;DHT22;8064;51.142;4.780;2022-09-12T09:16:53;24.70;96.20
15930;DHT22;8064;51.142;4.780;2022-09-12T09:19:25;24.80;96.00
15930;DHT22;8064;51.142;4.780;2022-09-12T09:25:00;24.90;94.80
15930;DHT22;8064;51.142;4.780;2022-09-12T09:27:32;25.00;94.70
15930;DHT22;8064;51.142;4.780;2022-09-12T09:29:58;25.00;94.20
15930;DHT22;8064;51.142;4.780;2022-09-12T09:32:26;25.20;94.00
15930;DHT22;8064;51.142;4.780;2022-09-12T09:34:52;25.40;93.90
15930;DHT22;8064;51.142;4.780;2022-09-12T09:39:58;25.60;92.80
15930;DHT22;8064;51.142;4.780;2022-09-12T09:42:42;25.60;92.40
15930;DHT22;8064;51.142;4.780;2022-09-12T09:45:14;25.70;91.90
15930;DHT22;8064;51.142;4.780;2022-09-12T09:47:45;25.80;91.80
15930;DHT22;8064;51.142;4.780;2022-09-12T09:50:15;26.00;91.50
15930;DHT22;8064;51.142;4.780;2022-09-12T09:52:42;26.20;91.00
15930;DHT22;8064;51.142;4.780;2022-09-12T09:55:15;26.20;90.40
15930;DHT22;8064;51.142;4.780;2022-09-12T09:57:43;26.20;90.00
15930;DHT22;8064;51.142;4.780;2022-09-12T10:05:52;26.50;88.40
15930;DHT22;8064;51.142;4.780;2022-09-12T10:08:22;26.60;88.00
15930;DHT22;8064;51.142;4.780;2022-09-12T10:13:55;26.90;86.70
15930;DHT22;8064;51.142;4.780;2022-09-12T10:16:25;27.00;86.50
15930;DHT22;8064;51.142;4.780;2022-09-12T10:18:54;27.20;85.80
15930;DHT22;8064;51.142;4.780;2022-09-12T10:21:26;27.30;84.50
15930;DHT22;8064;51.142;4.780;2022-09-12T10:27:04;27.50;82.90
15930;DHT22;8064;51.142;4.780;2022-09-12T10:29:33;27.60;83.00
15930;DHT22;8064;51.142;4.780;2022-09-12T10:32:02;27.60;82.50
15930;DHT22;8064;51.142;4.780;2022-09-12T10:34:35;27.70;81.30
15930;DHT22;8064;51.142;4.780;2022-09-12T10:37:05;27.80;81.40
15930;DHT22;8064;51.142;4.780;2022-09-12T10:39:32;27.90;80.30
15930;DHT22;8064;51.142;4.780;2022-09-12T10:41:59;28.00;80.40
15930;DHT22;8064;51.142;4.780;2022-09-12T10:44:29;28.00;79.30
15930;DHT22;8064;51.142;4.780;2022-09-12T10:46:56;28.00;79.70
15930;DHT22;8064;51.142;4.780;2022-09-12T10:49:26;28.10;78.70
15930;DHT22;8064;51.142;4.780;2022-09-12T10:51:53;28.10;78.50
15930;DHT22;8064;51.142;4.780;2022-09-12T10:54:22;28.20;78.10
15930;DHT22;8064;51.142;4.780;2022-09-12T10:57:10;28.20;77.00
15930;DHT22;8064;51.142;4.780;2022-09-12T11:00:07;28.20;76.60
15930;DHT22;8064;51.142;4.780;2022-09-12T11:05:59;28.10;76.20
15930;DHT22;8064;51.142;4.780;2022-09-12T11:14:39;27.60;77.30
15930;DHT22;8064;51.142;4.780;2022-09-12T11:17:27;27.50;77.70
15930;DHT22;8064;51.142;4.780;2022-09-12T11:20:29;27.30;77.40
15930;DHT22;8064;51.142;4.780;2022-09-12T11:32:05;26.70;78.70
15930;DHT22;8064;51.142;4.780;2022-09-12T11:40:15;26.40;78.50
15930;DHT22;8064;51.142;4.780;2022-09-12T11:42:45;26.30;78.70
15930;DHT22;8064;51.142;4.780;2022-09-12T11:45:18;26.20;79.00
15930;DHT22;8064;51.142;4.780;2022-09-12T11:47:51;26.10;78.80
15930;DHT22;8064;51.142;4.780;2022-09-12T11:50:33;26.10;79.10
15930;DHT22;8064;51.142;4.780;2022-09-12T11:53:05;26.00;78.70
15930;DHT22;8064;51.142;4.780;2022-09-12T11:55:46;25.90;78.80
15930;DHT22;8064;51.142;4.780;2022-09-12T11:58:14;25.90;79.80
15930;DHT22;8064;51.142;4.780;2022-09-12T12:00:55;25.80;79.40
15930;DHT22;8064;51.142;4.780;2022-09-12T12:03:42;25.80;79.40
15930;DHT22;8064;51.142;4.780;2022-09-12T12:06:22;25.80;79.90
15930;DHT22;8064;51.142;4.780;2022-09-12T12:08:50;25.80;80.40
15930;DHT22;8064;51.142;4.780;2022-09-12T12:11:33;25.70;80.40
15930;DHT22;8064;51.142;4.780;2022-09-12T12:16:27;25.70;80.40
15930;DHT22;8064;51.142;4.780;2022-09-12T12:21:40;25.60;80.10
15930;DHT22;8064;51.142;4.780;2022-09-12T12:34:32;25.50;79.90
15930;DHT22;8064;51.142;4.780;2022-09-12T12:36:59;25.50;80.20
15930;DHT22;8064;51.142;4.780;2022-09-12T12:44:58;25.60;79.70
15930;DHT22;8064;51.142;4.780;2022-09-12T12:47:28;25.60;79.90
15930;DHT22;8064;51.142;4.780;2022-09-12T12:50:03;25.60;79.50
15930;DHT22;8064;51.142;4.780;2022-09-12T12:52:32;25.60;79.80
15930;DHT22;8064;51.142;4.780;2022-09-12T12:55:14;25.60;79.30
15930;DHT22;8064;51.142;4.780;2022-09-12T12:57:55;25.60;79.20
15930;DHT22;8064;51.142;4.780;2022-09-12T13:00:40;25.60;78.00
15930;DHT22;8064;51.142;4.780;2022-09-12T13:05:51;25.60;77.90
15930;DHT22;8064;51.142;4.780;2022-09-12T13:11:35;25.70;79.00
15930;DHT22;8064;51.142;4.780;2022-09-12T13:14:05;25.60;77.90
15930;DHT22;8064;51.142;4.780;2022-09-12T13:16:52;25.60;78.20
15930;DHT22;8064;51.142;4.780;2022-09-12T13:22:08;25.60;77.60
15930;DHT22;8064;51.142;4.780;2022-09-12T13:24:42;25.60;77.80
15930;DHT22;8064;51.142;4.780;2022-09-12T13:27:17;25.50;77.50
15930;DHT22;8064;51.142;4.780;2022-09-12T13:29:43;25.60;77.30
15930;DHT22;8064;51.142;4.780;2022-09-12T13:32:08;25.50;77.20
15930;DHT22;8064;51.142;4.780;2022-09-12T13:34:45;25.50;77.10
15930;DHT22;8064;51.142;4.780;2022-09-12T13:40:32;25.60;76.70
15930;DHT22;8064;51.142;4.780;2022-09-12T13:43:17;25.70;76.00
15930;DHT22;8064;51.142;4.780;2022-09-12T13:45:47;25.70;76.50
15930;DHT22;8064;51.142;4.780;2022-09-12T13:48:26;25.70;76.40
15930;DHT22;8064;51.142;4.780;2022-09-12T13:50:56;25.80;76.20
15930;DHT22;8064;51.142;4.780;2022-09-12T13:56:15;25.80;75.50
15930;DHT22;8064;51.142;4.780;2022-09-12T13:58:51;25.80;75.60
15930;DHT22;8064;51.142;4.780;2022-09-12T14:01:19;25.80;75.60
15930;DHT22;8064;51.142;4.780;2022-09-12T14:04:01;25.80;75.50
15930;DHT22;8064;51.142;4.780;2022-09-12T14:06:51;25.80;74.90
15930;DHT22;8064;51.142;4.780;2022-09-12T14:09:36;25.70;75.10
15930;DHT22;8064;51.142;4.780;2022-09-12T14:12:04;25.70;74.90
15930;DHT22;8064;51.142;4.780;2022-09-12T14:14:37;25.70;75.00
15930;DHT22;8064;51.142;4.780;2022-09-12T14:17:26;25.60;74.80
15930;DHT22;8064;51.142;4.780;2022-09-12T14:19:54;25.60;75.00
15930;DHT22;8064;51.142;4.780;2022-09-12T14:22:24;25.60;75.30
15930;DHT22;8064;51.142;4.780;2022-09-12T14:24:55;25.60;75.40
15930;DHT22;8064;51.142;4.780;2022-09-12T14:27:25;25.60;75.10
15930;DHT22;8064;51.142;4.780;2022-09-12T14:30:00;25.50;74.80
15930;DHT22;8064;51.142;4.780;2022-09-12T14:32:27;25.60;74.60
15930;DHT22;8064;51.142;4.780;2022-09-12T14:35:05;25.50;75.00
15930;DHT22;8064;51.142;4.780;2022-09-12T14:37:30;25.60;75.20
15930;DHT22;8064;51.142;4.780;2022-09-12T14:39:57;25.60;75.00
15930;DHT22;8064;51.142;4.780;2022-09-12T14:42:26;25.70;74.90
15930;DHT22;8064;51.142;4.780;2022-09-12T14:44:58;25.70;74.60
15930;DHT22;8064;51.142;4.780;2022-09-12T14:47:26;25.70;74.70
15930;DHT22;8064;51.142;4.780;2022-09-12T14:49:53;25.60;74.40
15930;DHT22;8064;51.142;4.780;2022-09-12T14:52:34;25.60;74.80
15930;DHT22;8064;51.142;4.780;2022-09-12T14:55:03;25.60;74.40
15930;DHT22;8064;51.142;4.780;2022-09-12T14:57:44;25.60;74.60
15930;DHT22;8064;51.142;4.780;2022-09-12T15:02:36;25.50;74.50
15930;DHT22;8064;51.142;4.780;2022-09-12T15:10:28;25.50;74.00
15930;DHT22;8064;51.142;4.780;2022-09-12T15:13:15;25.50;73.60
15930;DHT22;8064;51.142;4.780;2022-09-12T15:15:44;25.50;73.60
15930;DHT22;8064;51.142;4.780;2022-09-12T15:18:11;25.50;73.80
15930;DHT22;8064;51.142;4.780;2022-09-12T15:20:38;25.50;73.60
15930;DHT22;8064;51.142;4.780;2022-09-12T15:23:06;25.50;73.50
15930;DHT22;8064;51.142;4.780;2022-09-12T15:25:35;25.50;73.30
15930;DHT22;8064;51.142;4.780;2022-09-12T15:28:07;25.40;73.30
15930;DHT22;8064;51.142;4.780;2022-09-12T15:30:37;25.50;73.40
15930;DHT22;8064;51.142;4.780;2022-09-12T15:33:03;25.40;73.60
15930;DHT22;8064;51.142;4.780;2022-09-12T15:35:31;25.50;73.60
15930;DHT22;8064;51.142;4.780;2022-09-12T15:37:58;25.40;73.60
15930;DHT22;8064;51.142;4.780;2022-09-12T15:40:23;25.40;73.70
15930;DHT22;8064;51.142;4.780;2022-09-12T15:42:50;25.40;73.80
15930;DHT22;8064;51.142;4.780;2022-09-12T15:45:21;25.40;73.70
15930;DHT22;8064;51.142;4.780;2022-09-12T15:47:48;25.40;74.00
15930;DHT22;8064;51.142;4.780;2022-09-12T15:50:14;25.40;73.70
15930;DHT22;8064;51.142;4.780;2022-09-12T15:52:39;25.50;73.60
15930;DHT22;8064;51.142;4.780;2022-09-12T15:55:14;25.50;73.40
15930;DHT22;8064;51.142;4.780;2022-09-12T15:57:40;25.50;73.20
15930;DHT22;8064;51.142;4.780;2022-09-12T16:00:06;25.50;73.30
15930;DHT22;8064;51.142;4.780;2022-09-12T16:02:32;25.50;73.30
15930;DHT22;8064;51.142;4.780;2022-09-12T16:04:58;25.50;73.90
15930;DHT22;8064;51.142;4.780;2022-09-12T16:07:24;25.40;73.70
15930;DHT22;8064;51.142;4.780;2022-09-12T16:09:49;25.40;73.60
15930;DHT22;8064;51.142;4.780;2022-09-12T16:12:15;25.40;73.60
15930;DHT22;8064;51.142;4.780;2022-09-12T16:14:41;25.40;73.60
15930;DHT22;8064;51.142;4.780;2022-09-12T16:17:06;25.40;73.50
15930;DHT22;8064;51.142;4.780;2022-09-12T16:19:32;25.40;73.50
15930;DHT22;8064;51.142;4.780;2022-09-12T16:21:58;25.40;73.70
15930;DHT22;8064;51.142;4.780;2022-09-12T16:24:24;25.30;73.70
15930;DHT22;8064;51.142;4.780;2022-09-12T16:26:49;25.30;73.80
15930;DHT22;8064;51.142;4.780;2022-09-12T16:29:16;25.30;73.80
15930;DHT22;8064;51.142;4.780;2022-09-12T16:31:42;25.30;73.90
15930;DHT22;8064;51.142;4.780;2022-09-12T16:34:09;25.20;73.70
15930;DHT22;8064;51.142;4.780;2022-09-12T16:36:35;25.20;73.90
15930;DHT22;8064;51.142;4.780;2022-09-12T16:39:01;25.10;74.10
15930;DHT22;8064;51.142;4.780;2022-09-12T16:41:27;25.10;74.40
15930;DHT22;8064;51.142;4.780;2022-09-12T16:43:53;25.00;74.80
15930;DHT22;8064;51.142;4.780;2022-09-12T16:46:21;25.00;75.30
15930;DHT22;8064;51.142;4.780;2022-09-12T16:48:49;24.90;75.40
15930;DHT22;8064;51.142;4.780;2022-09-12T16:51:17;24.80;75.50
15930;DHT22;8064;51.142;4.780;2022-09-12T16:53:45;24.80;75.70
15930;DHT22;8064;51.142;4.780;2022-09-12T16:56:11;24.70;75.90
15930;DHT22;8064;51.142;4.780;2022-09-12T16:58:38;24.70;76.40
15930;DHT22;8064;51.142;4.780;2022-09-12T17:01:08;24.60;76.60
15930;DHT22;8064;51.142;4.780;2022-09-12T17:03:35;24.60;76.90
15930;DHT22;8064;51.142;4.780;2022-09-12T17:08:49;24.50;77.40
15930;DHT22;8064;51.142;4.780;2022-09-12T17:11:18;24.50;77.60
15930;DHT22;8064;51.142;4.780;2022-09-12T17:13:47;24.50;77.80
15930;DHT22;8064;51.142;4.780;2022-09-12T17:16:13;24.40;77.90
15930;DHT22;8064;51.142;4.780;2022-09-12T17:18:39;24.40;78.10
15930;DHT22;8064;51.142;4.780;2022-09-12T17:21:06;24.40;78.50
15930;DHT22;8064;51.142;4.780;2022-09-12T17:23:32;24.30;78.80
15930;DHT22;8064;51.142;4.780;2022-09-12T17:25:58;24.30;79.10
15930;DHT22;8064;51.142;4.780;2022-09-12T17:28:23;24.30;79.30
15930;DHT22;8064;51.142;4.780;2022-09-12T17:31:09;24.20;79.70
15930;DHT22;8064;51.142;4.780;2022-09-12T17:33:35;24.20;80.60
15930;DHT22;8064;51.142;4.780;2022-09-12T17:36:03;24.10;80.90
15930;DHT22;8064;51.142;4.780;2022-09-12T17:38:31;24.10;81.40
15930;DHT22;8064;51.142;4.780;2022-09-12T17:41:13;24.10;82.00
15930;DHT22;8064;51.142;4.780;2022-09-12T17:43:40;24.00;82.30
15930;DHT22;8064;51.142;4.780;2022-09-12T17:46:07;23.90;82.40
15930;DHT22;8064;51.142;4.780;2022-09-12T17:48:33;23.80;82.50
15930;DHT22;8064;51.142;4.780;2022-09-12T17:51:08;23.80;82.80
15930;DHT22;8064;51.142;4.780;2022-09-12T17:53:34;23.70;83.60
15930;DHT22;8064;51.142;4.780;2022-09-12T17:56:01;23.60;84.00
15930;DHT22;8064;51.142;4.780;2022-09-12T17:58:27;23.60;84.70
15930;DHT22;8064;51.142;4.780;2022-09-12T18:01:00;23.50;85.30
15930;DHT22;8064;51.142;4.780;2022-09-12T18:03:44;23.40;85.90
15930;DHT22;8064;51.142;4.780;2022-09-12T18:06:11;23.30;86.10
15930;DHT22;8064;51.142;4.780;2022-09-12T18:08:36;23.30;86.90
15930;DHT22;8064;51.142;4.780;2022-09-12T18:11:03;23.20;87.30
15930;DHT22;8064;51.142;4.780;2022-09-12T18:13:31;23.10;87.70
15930;DHT22;8064;51.142;4.780;2022-09-12T18:16:16;23.00;88.10
15930;DHT22;8064;51.142;4.780;2022-09-12T18:18:42;23.00;89.00
15930;DHT22;8064;51.142;4.780;2022-09-12T18:21:09;22.90;89.00
15930;DHT22;8064;51.142;4.780;2022-09-12T18:23:36;22.80;89.20
15930;DHT22;8064;51.142;4.780;2022-09-12T18:26:05;22.80;89.60
15930;DHT22;8064;51.142;4.780;2022-09-12T18:28:32;22.70;90.00
15930;DHT22;8064;51.142;4.780;2022-09-12T18:30:58;22.70;90.10
15930;DHT22;8064;51.142;4.780;2022-09-12T18:33:24;22.60;90.20